createdAt,value
2023-05-14T00:00:05.948Z,95430.94
2023-05-14T00:02:32.539Z,95437.88
2023-05-14T00:04:59.086Z,95427.66
2023-05-14T00:07:25.529Z,95425.63
2023-05-14T00:09:52.092Z,95424.00
2023-05-14T00:12:18.586Z,95431.78
2023-05-14T00:14:45.065Z,95428.88
2023-05-14T00:17:11.574Z,95429.09
2023-05-14T00:19:38.063Z,95420.72
2023-05-14T00:22:04.594Z,95420.72
2023-05-14T00:24:31.097Z,95414.22
2023-05-14T00:26:57.544Z,95418.28
2023-05-14T00:29:24.056Z,95424.00
2023-05-14T00:31:50.631Z,95411.56
2023-05-14T00:34:17.148Z,95405.66
2023-05-14T00:36:43.667Z,95400.56
2023-05-14T00:39:10.169Z,95406.06
2023-05-14T00:41:36.622Z,95399.94
2023-05-14T00:44:03.210Z,95409.53
2023-05-14T00:46:29.817Z,95396.28
2023-05-14T00:48:58.243Z,95396.91
2023-05-14T00:51:24.833Z,95386.09
2023-05-14T00:53:51.872Z,95383.22
2023-05-14T00:56:19.378Z,95376.31
2023-05-14T00:58:45.843Z,95380.41
2023-05-14T01:01:12.455Z,95378.56
2023-05-14T01:03:39.249Z,95378.38
2023-05-14T01:06:11.580Z,95375.50
2023-05-14T01:08:43.974Z,95372.59
2023-05-14T01:11:19.049Z,95364.50
2023-05-14T01:14:18.917Z,95368.53
2023-05-14T01:16:45.992Z,95369.34
2023-05-14T01:19:26.811Z,95373.84
2023-05-14T01:21:53.301Z,95360.38
2023-05-14T01:24:19.800Z,95363.44
2023-05-14T01:26:46.331Z,95362.00
2023-05-14T01:29:23.714Z,95369.53
2023-05-14T01:31:55.294Z,95368.13
2023-05-14T01:34:26.080Z,95364.44
2023-05-14T01:36:53.620Z,95367.28
2023-05-14T01:39:22.107Z,95374.63
2023-05-14T01:41:49.607Z,95370.97
2023-05-14T01:44:17.328Z,95372.19
2023-05-14T01:46:43.853Z,95374.22
2023-05-14T01:49:10.370Z,95361.97
2023-05-14T01:51:36.875Z,95361.59
2023-05-14T01:54:03.659Z,95365.66
2023-05-14T01:56:30.238Z,95361.34
2023-05-14T01:58:56.716Z,95359.53
2023-05-14T02:01:23.224Z,95365.25
2023-05-14T02:03:50.922Z,95357.91
2023-05-14T02:06:17.487Z,95360.34
2023-05-14T02:08:43.935Z,95360.75
2023-05-14T02:11:10.500Z,95356.69
2023-05-14T02:13:36.967Z,95357.91
2023-05-14T02:16:03.712Z,95366.03
2023-05-14T02:18:30.266Z,95360.09
2023-05-14T02:20:56.753Z,95356.22
2023-05-14T02:23:34.142Z,95367.19
2023-05-14T02:26:07.295Z,95369.41
2023-05-14T02:28:33.769Z,95356.84
2023-05-14T02:31:00.274Z,95360.88
2023-05-14T02:33:27.598Z,95359.88
2023-05-14T02:35:54.351Z,95360.91
2023-05-14T02:38:20.818Z,95357.97
2023-05-14T02:40:47.321Z,95366.00
2023-05-14T02:43:13.788Z,95353.50
2023-05-14T02:45:40.249Z,95353.50
2023-05-14T02:48:06.766Z,95357.22
2023-05-14T02:50:33.303Z,95354.50
2023-05-14T02:52:59.784Z,95348.28
2023-05-14T02:55:26.284Z,95352.84
2023-05-14T02:57:52.748Z,95348.00
2023-05-14T03:00:19.669Z,95348.28
2023-05-14T03:02:46.383Z,95339.22
2023-05-14T03:05:13.361Z,95343.34
2023-05-14T03:07:39.858Z,95339.34
2023-05-14T03:10:06.824Z,95341.00
2023-05-14T03:12:33.316Z,95331.69
2023-05-14T03:14:59.798Z,95336.13
2023-05-14T03:17:26.317Z,95337.00
2023-05-14T03:19:52.785Z,95336.66
2023-05-14T03:22:19.289Z,95333.41
2023-05-14T03:24:45.766Z,95340.09
2023-05-14T03:27:12.287Z,95340.28
2023-05-14T03:29:38.754Z,95347.41
2023-05-14T03:32:05.772Z,95342.44
2023-05-14T03:34:32.637Z,95337.94
2023-05-14T03:36:59.182Z,95344.81
2023-05-14T03:39:25.644Z,95334.06
2023-05-14T03:41:52.266Z,95336.13
2023-05-14T03:44:18.745Z,95336.25
2023-05-14T03:46:45.250Z,95335.63
2023-05-14T03:49:11.752Z,95340.41
2023-05-14T03:51:38.240Z,95339.09
2023-05-14T03:54:04.788Z,95339.91
2023-05-14T03:56:31.250Z,95339.59
2023-05-14T03:58:57.722Z,95341.03
2023-05-14T04:01:24.371Z,95341.84
2023-05-14T04:03:51.021Z,95338.91
2023-05-14T04:06:17.660Z,95334.13
2023-05-14T04:08:44.162Z,95341.41
2023-05-14T04:11:10.733Z,95335.03
2023-05-14T04:13:37.286Z,95335.22
2023-05-14T04:16:03.920Z,95330.00
2023-05-14T04:18:30.447Z,95334.03
2023-05-14T04:20:56.939Z,95332.78
2023-05-14T04:23:23.443Z,95336.22
2023-05-14T04:25:49.908Z,95336.19
2023-05-14T04:28:16.391Z,95342.34
2023-05-14T04:30:45.216Z,95338.56
2023-05-14T04:33:11.697Z,95344.44
2023-05-14T04:35:38.160Z,95346.31
2023-05-14T04:38:04.678Z,95345.22
2023-05-14T04:40:31.242Z,95349.69
2023-05-14T04:42:57.793Z,95352.50
2023-05-14T04:45:24.884Z,95354.28
2023-05-14T04:47:51.471Z,95362.06
2023-05-14T04:50:18.047Z,95361.69
2023-05-14T04:52:44.528Z,95353.28
2023-05-14T04:55:10.996Z,95359.78
2023-05-14T04:57:37.471Z,95366.00
2023-05-14T05:00:04.316Z,95359.59
2023-05-14T05:02:30.814Z,95356.44
2023-05-14T05:04:57.335Z,95357.47
2023-05-14T05:07:23.809Z,95355.00
2023-05-14T05:09:50.278Z,95354.06
2023-05-14T05:12:16.737Z,95360.06
2023-05-14T05:14:43.217Z,95360.97
2023-05-14T05:17:09.708Z,95358.44
2023-05-14T05:19:43.737Z,95361.88
2023-05-14T05:22:11.284Z,95356.41
2023-05-14T05:24:37.821Z,95354.09
2023-05-14T05:27:04.540Z,95361.91
2023-05-14T05:29:31.037Z,95356.81
2023-05-14T05:31:57.722Z,95361.06
2023-05-14T05:34:24.268Z,95356.44
2023-05-14T05:36:50.827Z,95358.91
2023-05-14T05:39:17.299Z,95361.56
2023-05-14T05:41:43.819Z,95359.47
2023-05-14T05:44:10.336Z,95355.56
2023-05-14T05:46:36.903Z,95357.84
2023-05-14T05:49:03.391Z,95355.00
2023-05-14T05:51:30.326Z,95356.13
2023-05-14T05:53:56.813Z,95360.63
2023-05-14T05:56:23.320Z,95363.03
2023-05-14T05:58:49.842Z,95362.31
2023-05-14T06:01:36.826Z,95361.56
2023-05-14T06:04:03.355Z,95364.81
2023-05-14T06:06:29.849Z,95366.47
2023-05-14T06:08:56.370Z,95366.25
2023-05-14T06:11:22.848Z,95368.31
2023-05-14T06:13:49.334Z,95369.75
2023-05-14T06:16:20.539Z,95363.38
2023-05-14T06:18:53.807Z,95358.97
2023-05-14T06:21:20.305Z,95365.53
2023-05-14T06:23:46.992Z,95367.34
2023-05-14T06:26:13.493Z,95368.00
2023-05-14T06:28:40.015Z,95366.53
2023-05-14T06:31:06.521Z,95362.00
2023-05-14T06:33:33.051Z,95367.72
2023-05-14T06:36:00.934Z,95370.44
2023-05-14T06:38:27.508Z,95361.91
2023-05-14T06:40:54.044Z,95371.28
2023-05-14T06:43:20.881Z,95367.84
2023-05-14T06:45:51.763Z,95375.41
2023-05-14T06:48:19.191Z,95368.50
2023-05-14T06:50:49.399Z,95364.22
2023-05-14T06:53:16.275Z,95367.28
2023-05-14T06:55:42.913Z,95370.94
2023-05-14T06:58:09.799Z,95378.31
2023-05-14T07:00:36.353Z,95374.63
2023-05-14T07:03:02.920Z,95375.06
2023-05-14T07:05:29.455Z,95375.09
2023-05-14T07:07:56.059Z,95378.75
2023-05-14T07:10:23.039Z,95370.56
2023-05-14T07:12:49.782Z,95378.09
2023-05-14T07:15:16.521Z,95376.28
2023-05-14T07:17:43.095Z,95372.16
2023-05-14T07:20:10.099Z,95369.88
2023-05-14T07:22:36.626Z,95377.09
2023-05-14T07:25:03.267Z,95366.91
2023-05-14T07:27:29.808Z,95377.53
2023-05-14T07:29:56.343Z,95362.84
2023-05-14T07:32:22.801Z,95373.84
2023-05-14T07:34:49.426Z,95364.84
2023-05-14T07:37:15.894Z,95363.25
2023-05-14T07:39:42.404Z,95357.75
2023-05-14T07:42:08.907Z,95356.69
2023-05-14T07:44:35.408Z,95364.41
2023-05-14T07:47:01.963Z,95366.00
2023-05-14T07:49:28.648Z,95354.22
2023-05-14T07:51:55.153Z,95359.41
2023-05-14T07:54:21.635Z,95354.47
2023-05-14T07:56:48.138Z,95357.91
2023-05-14T07:59:14.625Z,95359.06
2023-05-14T08:01:41.188Z,95360.56
2023-05-14T08:04:08.095Z,95347.94
2023-05-14T08:06:34.690Z,95354.06
2023-05-14T08:09:01.219Z,95352.72
2023-05-14T08:11:27.738Z,95353.06
2023-05-14T08:13:54.280Z,95349.44
2023-05-14T08:16:20.828Z,95347.78
2023-05-14T08:18:48.346Z,95346.69
2023-05-14T08:21:14.885Z,95343.88
2023-05-14T08:23:41.370Z,95346.53
2023-05-14T08:26:07.869Z,95347.34
2023-05-14T08:28:34.526Z,95345.09
2023-05-14T08:31:01.061Z,95350.31
2023-05-14T08:33:27.618Z,95347.47
2023-05-14T08:35:54.322Z,95347.19
2023-05-14T08:38:20.860Z,95344.59
2023-05-14T08:40:49.041Z,95336.13
2023-05-14T08:43:24.539Z,95335.84
2023-05-14T08:45:58.508Z,95334.88
2023-05-14T08:48:29.048Z,95324.22
2023-05-14T08:50:55.989Z,95319.88
2023-05-14T08:53:22.692Z,95323.94
2023-05-14T08:55:51.346Z,95325.19
2023-05-14T08:58:17.952Z,95320.16
2023-05-14T09:00:44.528Z,95320.91
2023-05-14T09:03:12.162Z,95322.19
2023-05-14T09:05:39.366Z,95321.44
2023-05-14T09:08:05.958Z,95319.22
2023-05-14T09:10:32.454Z,95314.78
2023-05-14T09:12:58.990Z,95310.41
2023-05-14T09:15:28.926Z,95309.28
2023-05-14T09:17:56.741Z,95312.59
2023-05-14T09:20:24.846Z,95310.13
2023-05-14T09:22:54.622Z,95307.31
2023-05-14T09:25:27.109Z,95318.41
2023-05-14T09:27:53.793Z,95312.13
2023-05-14T09:30:20.299Z,95309.00
2023-05-14T09:32:46.917Z,95305.47
2023-05-14T09:35:41.455Z,95307.16
2023-05-14T09:38:07.939Z,95303.66
2023-05-14T09:40:34.445Z,95308.72
2023-05-14T09:43:01.578Z,95302.31
2023-05-14T09:45:29.348Z,95297.88
2023-05-14T09:47:56.123Z,95305.75
2023-05-14T09:50:22.958Z,95298.94
2023-05-14T09:52:49.766Z,95299.25
2023-05-14T09:55:16.398Z,95305.75
2023-05-14T09:57:42.955Z,95301.97
2023-05-14T10:00:10.157Z,95307.25
2023-05-14T10:02:38.698Z,95300.00
2023-05-14T10:05:07.610Z,95303.59
2023-05-14T10:07:43.299Z,95298.22
2023-05-14T10:10:15.723Z,95294.31
2023-05-14T10:12:47.770Z,95290.22
2023-05-14T10:15:22.938Z,95291.56
2023-05-14T10:17:56.722Z,95300.59
2023-05-14T10:20:26.790Z,95290.38
2023-05-14T10:22:53.954Z,95288.31
2023-05-14T10:25:22.224Z,95291.56
2023-05-14T10:27:49.099Z,95292.66
2023-05-14T10:30:15.607Z,95293.75
2023-05-14T10:32:42.184Z,95294.34
2023-05-14T10:35:19.725Z,95289.38
2023-05-14T10:37:46.510Z,95293.97
2023-05-14T10:40:13.826Z,95297.34
2023-05-14T10:42:40.769Z,95288.97
2023-05-14T10:45:09.128Z,95288.16
2023-05-14T10:47:37.964Z,95285.72
2023-05-14T10:50:11.339Z,95282.47
2023-05-14T10:52:38.363Z,95286.69
2023-05-14T10:55:06.823Z,95281.38
2023-05-14T10:57:36.591Z,95277.66
2023-05-14T11:00:03.616Z,95276.81
2023-05-14T11:02:36.317Z,95277.16
2023-05-14T11:05:11.440Z,95275.53
2023-05-14T11:07:38.989Z,95280.50
2023-05-14T11:10:08.127Z,95269.19
2023-05-14T11:12:37.056Z,95275.53
2023-05-14T11:15:08.810Z,95272.66
2023-05-14T11:17:37.192Z,95275.22
2023-05-14T11:20:04.870Z,95263.38
2023-05-14T11:22:31.440Z,95267.03
2023-05-14T11:24:57.955Z,95261.06
2023-05-14T11:27:24.583Z,95258.88
2023-05-14T11:29:51.117Z,95266.53
2023-05-14T11:32:19.901Z,95255.56
2023-05-14T11:34:47.033Z,95249.13
2023-05-14T11:37:15.428Z,95256.84
2023-05-14T11:39:54.237Z,95255.56
2023-05-14T11:42:27.541Z,95261.19
2023-05-14T11:44:57.824Z,95259.28
2023-05-14T11:47:24.504Z,95254.41
2023-05-14T11:49:51.136Z,95264.59
2023-05-14T11:52:18.091Z,95256.81
2023-05-14T11:54:45.817Z,95251.47
2023-05-14T11:57:17.111Z,95255.56
2023-05-14T11:59:48.495Z,95244.69
2023-05-14T12:02:22.845Z,95253.34
2023-05-14T12:04:50.989Z,95248.69
2023-05-14T12:07:18.044Z,95240.09
2023-05-14T12:09:51.452Z,95246.31
2023-05-14T12:12:54.293Z,95236.50
2023-05-14T12:15:27.006Z,95231.28
2023-05-14T12:20:35.034Z,95233.56
2023-05-14T12:23:01.853Z,95225.63
2023-05-14T12:25:38.138Z,95242.09
2023-05-14T12:28:23.214Z,95244.56
2023-05-14T12:30:56.854Z,95249.78
2023-05-14T12:33:25.009Z,95245.81
2023-05-14T12:35:51.552Z,95252.97
2023-05-14T12:38:18.127Z,95243.09
2023-05-14T12:40:49.478Z,95250.09
2023-05-14T12:43:16.252Z,95245.88
2023-05-14T12:45:42.810Z,95231.25
2023-05-14T12:48:09.550Z,95235.47
2023-05-14T12:50:36.112Z,95233.31
2023-05-14T12:53:02.709Z,95234.50
2023-05-14T12:55:31.738Z,95231.22
2023-05-14T12:58:00.516Z,95225.78
2023-05-14T13:00:27.083Z,95221.06
2023-05-14T13:02:53.706Z,95225.66
2023-05-14T13:05:20.343Z,95222.91
2023-05-14T13:07:47.035Z,95215.13
2023-05-14T13:10:13.572Z,95213.19
2023-05-14T13:12:40.133Z,95212.34
2023-05-14T13:15:07.115Z,95205.47
2023-05-14T13:17:33.758Z,95207.31
2023-05-14T13:20:00.287Z,95191.84
2023-05-14T13:22:26.771Z,95195.69
2023-05-14T13:24:53.455Z,95191.13
2023-05-14T13:27:20.026Z,95183.28
2023-05-14T13:29:46.623Z,95193.75
2023-05-14T13:32:13.387Z,95182.56
2023-05-14T13:34:40.057Z,95178.94
2023-05-14T13:37:06.843Z,95185.00
2023-05-14T13:39:35.366Z,95185.13
2023-05-14T13:42:02.009Z,95182.41
2023-05-14T13:44:28.650Z,95186.44
2023-05-14T13:46:55.270Z,95193.53
2023-05-14T13:49:22.028Z,95180.59
2023-05-14T13:51:48.607Z,95176.91
2023-05-14T13:54:15.193Z,95173.09
2023-05-14T13:56:41.762Z,95178.78
2023-05-14T13:59:08.349Z,95171.31
2023-05-14T14:01:34.905Z,95174.84
2023-05-14T14:04:01.468Z,95168.81
2023-05-14T14:06:28.026Z,95178.06
2023-05-14T14:08:54.599Z,95178.19
2023-05-14T14:11:21.384Z,95181.47
2023-05-14T14:13:48.017Z,95175.19
2023-05-14T14:16:14.990Z,95170.34
2023-05-14T14:18:41.591Z,95167.09
2023-05-14T14:21:08.226Z,95160.00
2023-05-14T14:23:34.769Z,95164.88
2023-05-14T14:26:01.242Z,95166.34
2023-05-14T14:28:27.771Z,95159.91
2023-05-14T14:30:54.252Z,95163.44
2023-05-14T14:33:20.710Z,95161.00
2023-05-14T14:35:47.178Z,95155.63
2023-05-14T14:38:13.832Z,95154.44
2023-05-14T14:40:40.539Z,95155.19
2023-05-14T14:43:07.174Z,95153.47
2023-05-14T14:45:33.705Z,95164.34
2023-05-14T14:48:22.049Z,95160.47
2023-05-14T14:50:48.555Z,95154.34
2023-05-14T14:53:15.016Z,95158.19
2023-05-14T14:55:41.505Z,95157.44
2023-05-14T14:58:08.028Z,95148.59
2023-05-14T15:00:34.808Z,95154.50
2023-05-14T15:03:01.722Z,95146.09
2023-05-14T15:05:28.534Z,95150.78
2023-05-14T15:07:55.138Z,95138.63
2023-05-14T15:10:21.808Z,95149.88
2023-05-14T15:12:48.675Z,95142.44
2023-05-14T15:15:17.881Z,95142.38
2023-05-14T15:17:44.431Z,95143.50
2023-05-14T15:20:11.582Z,95150.16
2023-05-14T15:22:38.373Z,95152.13
2023-05-14T15:25:05.290Z,95157.91
2023-05-14T15:27:31.841Z,95153.75
2023-05-14T15:29:58.345Z,95160.13
2023-05-14T15:32:24.894Z,95155.38
2023-05-14T15:34:51.432Z,95158.84
2023-05-14T15:37:18.041Z,95160.84
2023-05-14T15:39:44.601Z,95151.44
2023-05-14T15:42:11.128Z,95156.06
2023-05-14T15:44:38.869Z,95169.91
2023-05-14T15:47:05.938Z,95173.78
2023-05-14T15:49:32.462Z,95173.69
2023-05-14T15:51:59.660Z,95173.16
2023-05-14T15:54:26.742Z,95178.00
2023-05-14T15:56:53.586Z,95175.84
2023-05-14T15:59:20.131Z,95194.69
2023-05-14T16:01:46.704Z,95196.53
2023-05-14T16:04:13.274Z,95197.03
2023-05-14T16:06:39.801Z,95182.56
2023-05-14T16:09:06.278Z,95183.69
2023-05-14T16:11:32.797Z,95183.38
2023-05-14T16:13:59.306Z,95177.53
2023-05-14T16:16:25.936Z,95180.06
2023-05-14T16:18:52.498Z,95174.66
2023-05-14T16:21:19.060Z,95177.41
2023-05-14T16:23:45.566Z,95172.88
2023-05-14T16:26:12.147Z,95168.03
2023-05-14T16:28:38.644Z,95162.00
2023-05-14T16:31:05.126Z,95163.09
2023-05-14T16:33:31.725Z,95164.28
2023-05-14T16:35:58.262Z,95166.91
2023-05-14T16:38:24.779Z,95189.25
2023-05-14T16:40:51.302Z,95185.13
2023-05-14T16:43:17.780Z,95190.03
2023-05-14T16:45:44.343Z,95205.03
2023-05-14T16:48:10.876Z,95199.97
2023-05-14T16:50:37.517Z,95199.44
2023-05-14T16:53:03.971Z,95194.53
2023-05-14T16:55:30.801Z,95184.03
2023-05-14T16:57:57.327Z,95189.84
2023-05-14T17:00:23.914Z,95188.59
2023-05-14T17:02:50.469Z,95185.78
2023-05-14T17:05:17.115Z,95192.69
2023-05-14T17:07:43.656Z,95189.25
2023-05-14T17:10:10.396Z,95194.63
2023-05-14T17:12:36.887Z,95188.88
2023-05-14T17:15:05.583Z,95199.81
2023-05-14T17:17:32.496Z,95205.31
2023-05-14T17:19:59.624Z,95205.50
2023-05-14T17:22:26.182Z,95216.81
2023-05-14T17:24:52.663Z,95214.13
2023-05-14T17:27:19.161Z,95216.59
2023-05-14T17:29:45.667Z,95222.88
2023-05-14T17:32:12.211Z,95226.81
2023-05-14T17:34:38.746Z,95233.41
2023-05-14T17:37:05.287Z,95234.84
2023-05-14T17:39:31.783Z,95230.63
2023-05-14T17:41:58.284Z,95231.63
2023-05-14T17:44:24.745Z,95235.13
2023-05-14T17:46:51.308Z,95229.22
2023-05-14T17:49:17.832Z,95226.50
2023-05-14T17:51:44.306Z,95223.59
2023-05-14T17:54:10.853Z,95221.91
2023-05-14T17:56:37.716Z,95221.19
2023-05-14T17:59:04.288Z,95234.94
2023-05-14T18:01:30.924Z,95229.44
2023-05-14T18:03:57.676Z,95235.13
2023-05-14T18:06:24.356Z,95240.13
2023-05-14T18:08:50.996Z,95240.44
2023-05-14T18:11:17.560Z,95245.78
2023-05-14T18:13:44.068Z,95243.31
2023-05-14T18:16:10.642Z,95253.06
2023-05-14T18:18:37.194Z,95249.16
2023-05-14T18:21:03.832Z,95245.00
2023-05-14T18:23:30.392Z,95256.56
2023-05-14T18:25:56.885Z,95260.28
2023-05-14T18:28:23.439Z,95261.94
2023-05-14T18:30:49.994Z,95256.69
2023-05-14T18:33:16.555Z,95275.66
2023-05-14T18:35:43.085Z,95277.63
2023-05-14T18:38:09.728Z,95274.47
2023-05-14T18:40:36.375Z,95281.22
2023-05-14T18:43:02.932Z,95278.53
2023-05-14T18:45:29.524Z,95279.59
2023-05-14T18:47:56.258Z,95273.84
2023-05-14T18:50:22.776Z,95294.63
2023-05-14T18:52:49.235Z,95285.13
2023-05-14T18:55:15.783Z,95297.47
2023-05-14T18:57:42.281Z,95302.13
2023-05-14T19:00:09.670Z,95307.66
2023-05-14T19:02:36.249Z,95307.94
2023-05-14T19:05:02.809Z,95300.44
2023-05-14T19:07:30.697Z,95306.72
2023-05-14T19:09:57.171Z,95316.91
2023-05-14T19:12:23.681Z,95325.25
2023-05-14T19:14:50.225Z,95324.63
2023-05-14T19:20:04.889Z,95346.19
2023-05-14T19:21:34.217Z,95335.06
2023-05-14T19:22:32.061Z,95340.94
2023-05-14T19:24:58.572Z,95345.03
2023-05-14T19:27:25.103Z,95348.31
2023-05-14T19:29:51.660Z,95357.50
2023-05-14T19:32:18.180Z,95354.84
2023-05-14T19:34:44.792Z,95355.44
2023-05-14T19:37:11.280Z,95357.91
2023-05-14T19:39:37.728Z,95351.50
2023-05-14T19:42:04.495Z,95357.25
2023-05-14T19:44:30.986Z,95355.75
2023-05-14T19:46:57.710Z,95364.91
2023-05-14T19:49:24.351Z,95368.47
2023-05-14T19:51:51.106Z,95366.09
2023-05-14T19:54:17.804Z,95362.88
2023-05-14T19:56:44.492Z,95365.31
2023-05-14T19:59:11.001Z,95369.50
2023-05-14T20:01:37.771Z,95373.84
2023-05-14T20:04:04.463Z,95373.53
2023-05-14T20:06:31.010Z,95371.91
2023-05-14T20:08:57.796Z,95370.75
2023-05-14T20:11:24.347Z,95380.97
2023-05-14T20:13:50.891Z,95378.91
2023-05-14T20:16:17.594Z,95378.97
2023-05-14T20:18:44.912Z,95379.78
2023-05-14T20:21:11.557Z,95377.78
2023-05-14T20:23:38.087Z,95372.31
2023-05-14T20:26:04.622Z,95377.84
2023-05-14T20:28:31.238Z,95370.53
2023-05-14T20:30:57.781Z,95369.88
2023-05-14T20:33:24.904Z,95372.66
2023-05-14T20:35:51.391Z,95372.63
2023-05-14T20:38:18.032Z,95368.13
2023-05-14T20:40:44.728Z,95369.28
2023-05-14T20:43:11.239Z,95363.13
2023-05-14T20:45:37.842Z,95358.31
2023-05-14T20:48:04.940Z,95366.84
2023-05-14T20:50:31.484Z,95366.06
2023-05-14T20:52:57.948Z,95371.50
2023-05-14T20:55:24.767Z,95374.41
2023-05-14T20:57:51.398Z,95372.44
2023-05-14T21:00:18.312Z,95376.59
2023-05-14T21:02:45.016Z,95375.44
2023-05-14T21:05:12.002Z,95368.91
2023-05-14T21:07:38.516Z,95367.09
2023-05-14T21:10:05.522Z,95365.66
2023-05-14T21:12:32.018Z,95366.06
2023-05-14T21:14:58.610Z,95369.72
2023-05-14T21:17:25.150Z,95362.31
2023-05-14T21:19:51.679Z,95368.88
2023-05-14T21:22:18.172Z,95365.97
2023-05-14T21:24:48.699Z,95358.75
2023-05-14T21:27:15.353Z,95361.84
2023-05-14T21:29:41.839Z,95364.31
2023-05-14T21:32:08.819Z,95361.66
2023-05-14T21:34:35.397Z,95365.16
2023-05-14T21:37:02.391Z,95370.84
2023-05-14T21:39:29.242Z,95365.81
2023-05-14T21:41:55.782Z,95365.81
2023-05-14T21:44:22.297Z,95363.56
2023-05-14T21:46:49.308Z,95371.97
2023-05-14T21:49:15.827Z,95369.63
2023-05-14T21:51:42.444Z,95367.13
2023-05-14T21:54:08.906Z,95356.13
2023-05-14T21:56:36.051Z,95358.06
2023-05-14T21:59:02.590Z,95354.19
2023-05-14T22:01:29.177Z,95355.69
2023-05-14T22:03:57.623Z,95357.31
2023-05-14T22:06:24.583Z,95353.03
2023-05-14T22:11:58.367Z,95349.66
2023-05-14T22:14:42.146Z,95348.53
2023-05-14T22:17:08.935Z,95336.81
2023-05-14T22:19:35.753Z,95341.50
2023-05-14T22:22:02.377Z,95343.22
2023-05-14T22:24:28.984Z,95341.28
2023-05-14T22:26:55.934Z,95345.38
2023-05-14T22:29:22.684Z,95341.31
2023-05-14T22:31:49.296Z,95339.75
2023-05-14T22:34:16.137Z,95337.03
2023-05-14T22:36:42.816Z,95337.38
2023-05-14T22:39:11.301Z,95348.81
2023-05-14T22:41:39.707Z,95350.69
2023-05-14T22:44:06.423Z,95345.19
2023-05-14T22:46:33.253Z,95350.50
2023-05-14T22:48:59.884Z,95356.25
2023-05-14T22:51:26.609Z,95353.38
2023-05-14T22:53:54.045Z,95352.59
2023-05-14T22:56:20.859Z,95350.13
2023-05-14T22:58:47.493Z,95343.66
2023-05-14T23:03:55.330Z,95345.47
2023-05-14T23:06:22.102Z,95346.91
2023-05-14T23:08:48.733Z,95349.34
2023-05-14T23:11:15.379Z,95353.34
2023-05-14T23:13:42.144Z,95343.50
2023-05-14T23:16:08.866Z,95335.44
2023-05-14T23:18:35.724Z,95333.44
2023-05-14T23:21:02.527Z,95336.72
2023-05-14T23:23:29.283Z,95332.66
2023-05-14T23:25:56.093Z,95335.06
2023-05-14T23:28:22.944Z,95326.47
2023-05-14T23:30:49.636Z,95334.16
2023-05-14T23:33:16.787Z,95339.03
2023-05-14T23:35:44.052Z,95332.38
2023-05-14T23:38:10.914Z,95329.75
2023-05-14T23:40:37.658Z,95322.59
2023-05-14T23:43:04.413Z,95324.06
2023-05-14T23:45:31.459Z,95322.44
2023-05-14T23:47:59.081Z,95314.69
2023-05-14T23:50:25.800Z,95318.16
2023-05-14T23:52:53.798Z,95319.19
2023-05-14T23:55:20.944Z,95320.41
2023-05-14T23:57:49.048Z,95322.84
